createdAt,value
2022-11-26T00:01:14.411Z,99.90
2022-11-26T00:03:44.724Z,99.90
2022-11-26T00:06:26.329Z,99.90
2022-11-26T00:08:55.081Z,99.90
2022-11-26T00:11:25.752Z,99.90
2022-11-26T00:13:56.972Z,99.90
2022-11-26T00:16:29.428Z,99.90
2022-11-26T00:19:05.920Z,99.90
2022-11-26T00:21:41.489Z,99.90
2022-11-26T00:24:30.333Z,99.90
2022-11-26T00:27:03.242Z,99.90
2022-11-26T00:29:35.390Z,99.90
2022-11-26T00:32:18.841Z,99.90
2022-11-26T00:34:48.328Z,99.90
2022-11-26T00:37:21.376Z,99.90
2022-11-26T00:39:49.889Z,99.90
2022-11-26T00:42:18.324Z,99.90
2022-11-26T00:44:46.529Z,99.90
2022-11-26T00:47:14.647Z,99.90
2022-11-26T00:49:42.764Z,99.90
2022-11-26T00:52:25.839Z,99.90
2022-11-26T00:54:54.030Z,99.90
2022-11-26T00:57:22.219Z,99.90
2022-11-26T00:59:50.266Z,99.90
2022-11-26T01:02:18.298Z,99.90
2022-11-26T01:04:46.592Z,99.90
2022-11-26T01:07:16.106Z,99.90
2022-11-26T01:09:47.232Z,99.90
2022-11-26T01:12:16.656Z,99.90
2022-11-26T01:14:44.916Z,99.90
2022-11-26T01:17:13.461Z,99.90
2022-11-26T01:19:41.479Z,99.90
2022-11-26T01:22:20.921Z,99.90
2022-11-26T01:24:49.463Z,99.90
2022-11-26T01:27:18.517Z,99.90
2022-11-26T01:29:46.576Z,99.90
2022-11-26T01:32:14.632Z,99.90
2022-11-26T01:34:42.683Z,99.90
2022-11-26T01:37:14.993Z,99.90
2022-11-26T01:39:44.364Z,99.90
2022-11-26T01:42:26.214Z,99.90
2022-11-26T01:44:54.197Z,99.90
2022-11-26T01:47:23.877Z,99.90
2022-11-26T01:50:34.107Z,99.90
2022-11-26T01:53:04.899Z,99.90
2022-11-26T01:55:39.537Z,99.90
2022-11-26T01:58:11.353Z,99.90
2022-11-26T02:00:39.524Z,99.90
2022-11-26T02:03:08.722Z,99.90
2022-11-26T02:05:43.532Z,99.90
2022-11-26T02:08:12.665Z,99.90
2022-11-26T02:10:42.110Z,99.90
2022-11-26T02:13:10.164Z,99.90
2022-11-26T02:15:44.311Z,99.90
2022-11-26T02:18:12.590Z,99.90
2022-11-26T02:20:55.656Z,99.90
2022-11-26T02:23:54.272Z,99.90
2022-11-26T02:26:58.938Z,99.90
2022-11-26T02:29:34.270Z,99.90
2022-11-26T02:32:09.576Z,99.90
2022-11-26T02:34:45.216Z,99.90
2022-11-26T02:37:19.800Z,99.90
2022-11-26T02:39:47.975Z,99.30
2022-11-26T02:42:26.618Z,99.00
2022-11-26T02:44:58.263Z,99.70
2022-11-26T02:47:29.405Z,99.40
2022-11-26T02:50:01.260Z,99.50
2022-11-26T02:52:30.745Z,99.90
2022-11-26T02:54:59.454Z,99.00
2022-11-26T02:57:31.564Z,99.10
2022-11-26T02:59:59.893Z,99.20
2022-11-26T03:02:36.497Z,99.10
2022-11-26T03:05:06.374Z,99.30
2022-11-26T03:07:36.607Z,99.30
2022-11-26T03:10:06.646Z,99.40
2022-11-26T03:12:34.702Z,99.20
2022-11-26T03:15:02.900Z,98.90
2022-11-26T03:17:32.373Z,99.20
2022-11-26T03:20:00.441Z,99.80
2022-11-26T03:22:28.901Z,99.90
2022-11-26T03:24:56.959Z,99.90
2022-11-26T03:27:27.342Z,99.90
2022-11-26T03:29:55.496Z,99.90
2022-11-26T03:32:23.644Z,99.90
2022-11-26T03:34:53.288Z,99.90
2022-11-26T03:37:21.416Z,99.90
2022-11-26T03:39:49.548Z,99.90
2022-11-26T03:42:17.692Z,99.90
2022-11-26T03:44:45.696Z,99.90
2022-11-26T03:47:13.899Z,99.90
2022-11-26T03:49:42.013Z,99.90
2022-11-26T03:52:11.527Z,99.90
2022-11-26T03:54:39.749Z,99.90
2022-11-26T03:57:08.037Z,99.90
2022-11-26T03:59:36.213Z,99.90
2022-11-26T04:02:04.939Z,99.90
2022-11-26T04:04:33.184Z,99.90
2022-11-26T04:07:01.439Z,99.90
2022-11-26T04:09:33.374Z,99.90
2022-11-26T04:12:01.620Z,99.90
2022-11-26T04:14:29.870Z,99.90
2022-11-26T04:16:58.016Z,99.90
2022-11-26T04:19:26.373Z,99.90
2022-11-26T04:21:54.431Z,99.90
2022-11-26T04:24:22.537Z,99.90
2022-11-26T04:26:51.942Z,99.90
2022-11-26T04:29:20.076Z,99.90
2022-11-26T04:31:49.186Z,99.90
2022-11-26T04:34:17.299Z,99.90
2022-11-26T04:36:45.382Z,99.90
2022-11-26T04:39:13.556Z,99.90
2022-11-26T04:41:42.873Z,99.90
2022-11-26T04:44:12.266Z,99.90
2022-11-26T04:46:40.373Z,99.90
2022-11-26T04:49:08.481Z,99.90
2022-11-26T04:51:36.653Z,99.90
2022-11-26T04:54:09.909Z,99.90
2022-11-26T04:56:40.812Z,99.90
2022-11-26T04:59:08.958Z,99.90
2022-11-26T05:01:38.505Z,99.90
2022-11-26T05:04:06.795Z,99.90
2022-11-26T05:06:34.961Z,99.90
2022-11-26T05:09:03.178Z,99.90
2022-11-26T05:11:31.299Z,99.90
2022-11-26T05:13:59.448Z,99.90
2022-11-26T05:16:30.205Z,99.90
2022-11-26T05:18:59.631Z,99.90
2022-11-26T05:21:27.709Z,99.90
2022-11-26T05:23:55.686Z,99.90
2022-11-26T05:26:23.803Z,99.90
2022-11-26T05:28:54.176Z,99.90
2022-11-26T05:31:22.373Z,99.90
2022-11-26T05:33:50.485Z,99.90
2022-11-26T05:36:19.849Z,99.90
2022-11-26T05:38:47.999Z,99.90
2022-11-26T05:41:16.121Z,99.90
2022-11-26T05:43:44.147Z,99.90
2022-11-26T05:46:15.793Z,99.90
2022-11-26T05:48:43.925Z,99.90
2022-11-26T05:51:12.393Z,99.90
2022-11-26T05:53:41.872Z,99.90
2022-11-26T05:56:10.025Z,99.90
2022-11-26T05:58:38.255Z,99.90
2022-11-26T06:01:09.283Z,99.90
2022-11-26T06:03:37.525Z,99.90
2022-11-26T06:06:06.066Z,99.90
2022-11-26T06:08:34.265Z,99.90
2022-11-26T06:11:03.677Z,99.90
2022-11-26T06:13:31.905Z,99.90
2022-11-26T06:15:59.922Z,99.90
2022-11-26T06:18:27.912Z,99.90
2022-11-26T06:20:56.000Z,99.90
2022-11-26T06:23:24.096Z,99.90
2022-11-26T06:25:52.135Z,99.90
2022-11-26T06:28:21.522Z,99.90
2022-11-26T06:30:49.539Z,99.60
2022-11-26T06:33:17.586Z,99.20
2022-11-26T06:35:45.886Z,99.20
2022-11-26T06:38:16.217Z,99.30
2022-11-26T06:40:44.251Z,99.40
2022-11-26T06:43:12.446Z,99.30
2022-11-26T06:45:42.025Z,99.20
2022-11-26T06:48:10.065Z,98.80
2022-11-26T06:50:38.147Z,98.80
2022-11-26T06:53:06.155Z,98.50
2022-11-26T06:55:34.239Z,98.00
2022-11-26T06:58:02.392Z,97.70
2022-11-26T07:00:30.488Z,97.50
2022-11-26T07:02:59.964Z,97.50
2022-11-26T07:05:28.172Z,96.80
2022-11-26T07:07:56.277Z,96.60
2022-11-26T07:10:24.320Z,97.00
2022-11-26T07:12:52.412Z,96.20
2022-11-26T07:15:20.451Z,97.10
2022-11-26T07:17:50.525Z,96.10
2022-11-26T07:20:20.094Z,95.70
2022-11-26T07:22:50.191Z,95.40
2022-11-26T07:25:18.315Z,95.30
2022-11-26T07:27:46.516Z,94.60
2022-11-26T07:30:17.406Z,94.40
2022-11-26T07:32:45.425Z,94.20
2022-11-26T07:35:18.989Z,94.00
2022-11-26T07:37:46.980Z,94.80
2022-11-26T07:40:15.450Z,93.80
2022-11-26T07:42:50.395Z,94.00
2022-11-26T07:45:25.447Z,93.80
2022-11-26T07:47:53.500Z,93.90
2022-11-26T07:50:22.956Z,93.90
2022-11-26T07:52:53.144Z,94.30
2022-11-26T07:55:23.509Z,94.00
2022-11-26T07:57:53.746Z,93.90
2022-11-26T08:00:22.425Z,94.90
2022-11-26T08:02:50.816Z,94.50
2022-11-26T08:05:18.982Z,94.90
2022-11-26T08:07:48.583Z,95.20
2022-11-26T08:10:16.751Z,95.10
2022-11-26T08:12:45.591Z,93.10
2022-11-26T08:15:13.691Z,93.10
2022-11-26T08:17:41.813Z,92.90
2022-11-26T08:20:10.731Z,91.60
2022-11-26T08:22:38.802Z,89.90
2022-11-26T08:25:10.151Z,89.50
2022-11-26T08:27:38.381Z,89.90
2022-11-26T08:30:08.449Z,89.00
2022-11-26T08:32:36.794Z,89.80
2022-11-26T08:35:07.793Z,89.20
2022-11-26T08:37:35.782Z,89.20
2022-11-26T08:40:03.859Z,87.10
2022-11-26T08:42:33.560Z,88.20
2022-11-26T08:45:01.616Z,88.60
2022-11-26T08:47:29.969Z,87.80
2022-11-26T08:49:58.024Z,87.40
2022-11-26T08:52:26.591Z,87.60
2022-11-26T08:54:54.607Z,86.50
2022-11-26T08:57:23.059Z,87.10
2022-11-26T08:59:55.068Z,87.00
2022-11-26T09:02:23.568Z,86.00
2022-11-26T09:04:53.454Z,86.10
2022-11-26T09:07:21.851Z,86.80
2022-11-26T09:09:49.903Z,86.90
2022-11-26T09:12:19.151Z,86.40
2022-11-26T09:14:48.577Z,86.90
2022-11-26T09:17:18.127Z,85.40
2022-11-26T09:19:47.238Z,86.40
2022-11-26T09:22:15.254Z,86.70
2022-11-26T09:24:43.378Z,86.30
2022-11-26T09:27:11.968Z,86.00
2022-11-26T09:29:40.000Z,85.40
2022-11-26T09:32:24.320Z,85.30
2022-11-26T09:34:55.747Z,85.00
2022-11-26T09:37:23.811Z,84.50
2022-11-26T09:39:54.160Z,84.60
2022-11-26T09:42:33.090Z,84.70
2022-11-26T09:45:09.817Z,85.50
2022-11-26T09:47:42.725Z,85.40
2022-11-26T09:50:26.302Z,84.80
2022-11-26T09:52:59.392Z,85.10
2022-11-26T09:55:31.965Z,86.30
2022-11-26T09:58:08.368Z,85.70
2022-11-26T10:00:40.389Z,86.00
2022-11-26T10:03:14.590Z,86.10
2022-11-26T10:05:50.982Z,86.00
2022-11-26T10:08:43.511Z,86.80
2022-11-26T10:11:20.463Z,85.80
2022-11-26T10:13:59.868Z,86.30
2022-11-26T10:16:33.774Z,86.10
2022-11-26T10:19:09.703Z,86.90
2022-11-26T10:21:58.798Z,86.90
2022-11-26T10:24:30.751Z,86.40
2022-11-26T10:27:02.480Z,86.90
2022-11-26T10:29:38.255Z,86.80
2022-11-26T10:32:15.479Z,86.10
2022-11-26T10:34:50.613Z,86.30
2022-11-26T10:37:21.486Z,86.80
2022-11-26T10:39:55.251Z,87.40
2022-11-26T10:42:26.711Z,87.90
2022-11-26T10:44:57.050Z,86.60
2022-11-26T10:47:28.897Z,86.20
2022-11-26T10:50:39.487Z,86.60
2022-11-26T10:53:07.576Z,86.50
2022-11-26T10:55:40.590Z,86.70
2022-11-26T10:58:18.043Z,86.10
2022-11-26T11:00:55.290Z,87.10
2022-11-26T11:03:44.984Z,87.20
2022-11-26T11:06:28.088Z,86.60
2022-11-26T11:08:57.534Z,85.00
2022-11-26T11:11:27.264Z,84.50
2022-11-26T11:13:58.281Z,84.00
2022-11-26T11:16:29.731Z,84.10
2022-11-26T11:18:59.490Z,83.00
2022-11-26T11:21:31.075Z,81.80
2022-11-26T11:24:19.043Z,82.90
2022-11-26T11:26:49.672Z,82.30
2022-11-26T11:29:32.628Z,82.70
2022-11-26T11:32:04.315Z,82.30
2022-11-26T11:34:35.299Z,82.50
2022-11-26T11:37:05.635Z,82.80
2022-11-26T11:39:36.528Z,82.80
2022-11-26T11:43:23.765Z,82.10
2022-11-26T11:46:04.274Z,83.60
2022-11-26T11:48:44.143Z,80.50
2022-11-26T11:51:23.037Z,80.50
2022-11-26T11:54:03.238Z,81.90
2022-11-26T11:56:38.104Z,81.90
2022-11-26T11:59:23.273Z,81.40
2022-11-26T12:02:17.112Z,82.00
2022-11-26T12:05:04.702Z,83.00
2022-11-26T12:07:38.124Z,81.00
2022-11-26T12:10:14.989Z,80.40
2022-11-26T12:12:47.664Z,79.80
2022-11-26T12:15:24.539Z,80.30
2022-11-26T12:18:00.723Z,81.00
2022-11-26T12:20:35.511Z,80.50
2022-11-26T12:23:24.457Z,80.00
2022-11-26T12:25:57.909Z,77.10
2022-11-26T12:28:29.010Z,78.50
2022-11-26T12:31:02.861Z,79.00
2022-11-26T12:33:35.912Z,79.50
2022-11-26T12:36:13.846Z,79.60
2022-11-26T12:38:46.317Z,79.90
2022-11-26T12:41:19.343Z,80.40
2022-11-26T12:43:54.312Z,80.70
2022-11-26T12:46:32.437Z,80.50
2022-11-26T12:49:12.082Z,80.40
2022-11-26T12:51:44.934Z,80.80
2022-11-26T12:54:21.016Z,81.10
2022-11-26T12:56:58.110Z,81.10
2022-11-26T12:59:32.024Z,80.70
2022-11-26T13:02:15.507Z,80.30
2022-11-26T13:04:45.885Z,78.20
2022-11-26T13:07:28.239Z,79.10
2022-11-26T13:10:05.853Z,79.00
2022-11-26T13:12:46.724Z,77.50
2022-11-26T13:15:21.864Z,77.50
2022-11-26T13:17:53.952Z,77.20
2022-11-26T13:20:54.351Z,76.80
2022-11-26T13:23:36.156Z,77.40
2022-11-26T13:26:26.108Z,77.50
2022-11-26T13:29:11.410Z,77.00
2022-11-26T13:31:55.076Z,78.10
2022-11-26T13:34:53.497Z,78.60
2022-11-26T13:37:41.904Z,78.00
2022-11-26T13:40:38.111Z,77.90
2022-11-26T13:43:32.709Z,77.90
2022-11-26T13:46:17.583Z,78.10
2022-11-26T13:48:56.664Z,77.80
2022-11-26T13:51:30.538Z,78.50
2022-11-26T13:54:08.969Z,78.60
2022-11-26T13:56:38.765Z,78.70
2022-11-26T13:59:16.794Z,78.50
2022-11-26T14:01:45.146Z,77.40
2022-11-26T14:04:14.760Z,77.70
2022-11-26T14:10:00.119Z,76.40
2022-11-26T14:13:01.900Z,77.90
2022-11-26T14:15:58.268Z,78.50
2022-11-26T14:18:58.785Z,79.20
2022-11-26T14:21:26.954Z,79.30
2022-11-26T14:23:56.708Z,79.90
2022-11-26T14:26:30.116Z,79.80
2022-11-26T14:29:15.131Z,80.10
2022-11-26T14:31:49.767Z,80.10
2022-11-26T14:34:24.255Z,79.70
2022-11-26T14:36:55.430Z,80.40
2022-11-26T14:39:23.994Z,80.80
2022-11-26T14:41:57.871Z,81.00
2022-11-26T14:44:28.597Z,81.30
2022-11-26T14:46:59.897Z,81.30
2022-11-26T14:49:36.756Z,81.50
2022-11-26T14:52:15.725Z,81.70
2022-11-26T14:54:47.007Z,82.00
2022-11-26T14:57:21.200Z,82.60
2022-11-26T14:59:57.540Z,81.90
2022-11-26T15:02:27.458Z,81.80
2022-11-26T15:05:00.725Z,82.30
2022-11-26T15:07:32.324Z,82.80
2022-11-26T15:10:05.368Z,82.70
2022-11-26T15:12:37.588Z,82.90
2022-11-26T15:15:07.155Z,83.20
2022-11-26T15:17:37.153Z,83.60
2022-11-26T15:20:09.045Z,83.30
2022-11-26T15:22:39.356Z,83.80
2022-11-26T15:25:17.772Z,83.90
2022-11-26T15:27:55.952Z,84.00
2022-11-26T15:30:26.168Z,84.10
2022-11-26T15:33:05.267Z,83.90
2022-11-26T15:35:34.073Z,84.00
2022-11-26T15:38:02.223Z,83.50
2022-11-26T15:40:33.339Z,83.60
2022-11-26T15:43:05.119Z,83.30
2022-11-26T15:45:40.354Z,83.70
2022-11-26T15:48:27.495Z,83.60
2022-11-26T15:51:01.110Z,83.60
2022-11-26T15:53:32.920Z,83.80
2022-11-26T15:56:02.046Z,84.10
2022-11-26T15:58:34.914Z,84.30
2022-11-26T16:01:05.109Z,84.10
2022-11-26T16:03:42.973Z,84.20
2022-11-26T16:06:31.487Z,84.50
2022-11-26T16:09:02.624Z,84.70
2022-11-26T16:11:33.911Z,84.80
2022-11-26T16:14:24.827Z,84.80
2022-11-26T16:16:53.836Z,84.60
2022-11-26T16:19:22.966Z,84.50
2022-11-26T16:21:53.653Z,84.60
2022-11-26T16:24:29.813Z,84.50
2022-11-26T16:27:00.859Z,84.80
2022-11-26T16:29:31.229Z,85.00
2022-11-26T16:32:00.978Z,86.00
2022-11-26T16:34:31.120Z,85.30
2022-11-26T16:37:03.382Z,85.40
2022-11-26T16:39:37.519Z,85.60
2022-11-26T16:42:14.371Z,85.70
2022-11-26T16:44:50.111Z,85.70
2022-11-26T16:47:23.940Z,85.60
2022-11-26T16:49:52.146Z,85.50
2022-11-26T16:52:20.870Z,85.70
2022-11-26T16:54:51.590Z,85.50
2022-11-26T16:57:21.908Z,85.40
2022-11-26T16:59:54.795Z,85.10
2022-11-26T17:02:24.428Z,85.20
2022-11-26T17:04:52.799Z,85.50
2022-11-26T17:07:27.120Z,85.30
2022-11-26T17:09:55.455Z,85.50
2022-11-26T17:12:25.495Z,86.00
2022-11-26T17:14:54.989Z,85.50
2022-11-26T17:17:25.390Z,85.70
2022-11-26T17:19:53.824Z,85.70
2022-11-26T17:22:22.130Z,85.60
2022-11-26T17:24:50.379Z,84.30
2022-11-26T17:27:22.877Z,84.50
2022-11-26T17:29:50.995Z,85.00
2022-11-26T17:32:20.809Z,84.30
2022-11-26T17:34:49.175Z,84.70
2022-11-26T17:37:22.098Z,84.50
2022-11-26T17:39:50.431Z,84.30
2022-11-26T17:42:19.989Z,85.20
2022-11-26T17:44:48.310Z,84.60
2022-11-26T17:47:19.104Z,84.80
2022-11-26T17:49:48.912Z,84.30
2022-11-26T17:52:17.863Z,84.30
2022-11-26T17:54:46.987Z,84.40
2022-11-26T17:57:17.251Z,84.20
2022-11-26T17:59:45.867Z,84.00
2022-11-26T18:02:14.102Z,84.10
2022-11-26T18:04:42.206Z,84.00
2022-11-26T18:07:14.372Z,83.70
2022-11-26T18:09:42.960Z,83.50
2022-11-26T18:12:23.188Z,83.70
2022-11-26T18:14:56.065Z,84.00
2022-11-26T18:17:25.139Z,84.50
2022-11-26T18:19:53.377Z,84.50
2022-11-26T18:22:25.194Z,84.80
2022-11-26T18:24:57.035Z,85.40
2022-11-26T18:27:27.856Z,86.40
2022-11-26T18:29:56.150Z,87.20
2022-11-26T18:32:24.264Z,87.40
2022-11-26T18:34:52.452Z,87.80
2022-11-26T18:37:21.921Z,87.60
2022-11-26T18:39:50.187Z,87.70
2022-11-26T18:42:36.600Z,87.80
2022-11-26T18:45:06.844Z,87.70
2022-11-26T18:47:34.948Z,87.90
2022-11-26T18:50:03.317Z,87.70
2022-11-26T18:52:32.734Z,87.40
2022-11-26T18:55:04.557Z,87.00
2022-11-26T18:57:33.194Z,86.80
2022-11-26T19:00:01.246Z,86.90
2022-11-26T19:02:29.411Z,86.90
2022-11-26T19:04:58.201Z,87.00
2022-11-26T19:07:27.639Z,87.00
2022-11-26T19:09:57.289Z,87.10
2022-11-26T19:12:25.471Z,87.20
2022-11-26T19:14:53.879Z,87.50
2022-11-26T19:17:21.963Z,87.80
2022-11-26T19:19:52.412Z,88.20
2022-11-26T19:22:22.943Z,88.40
2022-11-26T19:24:51.154Z,88.50
2022-11-26T19:27:22.963Z,89.00
2022-11-26T19:29:53.231Z,89.30
2022-11-26T19:32:23.855Z,89.30
2022-11-26T19:34:51.926Z,89.10
2022-11-26T19:37:22.221Z,89.30
2022-11-26T19:39:50.349Z,90.50
2022-11-26T19:42:23.469Z,91.70
2022-11-26T19:44:51.617Z,92.80
2022-11-26T19:47:19.744Z,93.90
2022-11-26T19:49:48.756Z,95.70
2022-11-26T19:52:16.887Z,96.50
2022-11-26T19:54:44.989Z,96.90
2022-11-26T19:57:13.368Z,97.10
2022-11-26T19:59:42.907Z,98.50
2022-11-26T20:02:11.468Z,99.30
2022-11-26T20:04:39.646Z,99.00
2022-11-26T20:07:09.985Z,99.60
2022-11-26T20:09:38.491Z,99.90
2022-11-26T20:12:07.139Z,99.90
2022-11-26T20:14:35.482Z,99.90
2022-11-26T20:17:04.943Z,99.90
2022-11-26T20:19:33.381Z,99.90
2022-11-26T20:22:01.451Z,99.90
2022-11-26T20:24:29.772Z,99.90
2022-11-26T20:26:58.315Z,99.90
2022-11-26T20:29:26.466Z,99.90
2022-11-26T20:31:57.096Z,99.90
2022-11-26T20:34:27.816Z,99.90
2022-11-26T20:36:55.987Z,99.90
2022-11-26T20:39:24.975Z,99.90
2022-11-26T20:41:53.237Z,99.90
2022-11-26T20:44:23.079Z,99.90
2022-11-26T20:46:51.303Z,99.90
2022-11-26T20:49:20.559Z,99.90
2022-11-26T20:51:50.170Z,99.90
2022-11-26T20:54:20.473Z,99.90
2022-11-26T20:56:48.639Z,99.90
2022-11-26T20:59:17.044Z,99.90
2022-11-26T21:01:45.200Z,99.90
2022-11-26T21:04:13.415Z,99.90
2022-11-26T21:06:43.741Z,99.90
2022-11-26T21:09:14.625Z,99.90
2022-11-26T21:11:42.916Z,99.90
2022-11-26T21:14:14.933Z,99.90
2022-11-26T21:16:46.449Z,99.90
2022-11-26T21:19:14.677Z,99.90
2022-11-26T21:21:43.189Z,99.90
2022-11-26T21:24:13.209Z,99.90
2022-11-26T21:26:41.444Z,99.90
2022-11-26T21:29:09.759Z,99.90
2022-11-26T21:31:38.266Z,99.90
2022-11-26T21:34:08.560Z,99.90
2022-11-26T21:36:37.681Z,99.90
2022-11-26T21:39:08.136Z,99.90
2022-11-26T21:41:37.573Z,99.90
2022-11-26T21:44:08.104Z,99.90
2022-11-26T21:46:38.766Z,99.90
2022-11-26T21:49:08.063Z,99.90
2022-11-26T21:51:36.336Z,99.90
2022-11-26T21:54:04.686Z,99.90
2022-11-26T21:56:33.626Z,99.90
2022-11-26T21:59:04.034Z,99.90
2022-11-26T22:01:34.421Z,99.90
2022-11-26T22:04:07.135Z,99.90
2022-11-26T22:06:35.799Z,99.90
2022-11-26T22:09:04.667Z,99.90
2022-11-26T22:11:36.627Z,99.90
2022-11-26T22:14:07.217Z,99.90
2022-11-26T22:16:36.059Z,99.90
2022-11-26T22:19:05.287Z,99.90
2022-11-26T22:21:35.538Z,99.90
2022-11-26T22:24:05.154Z,99.90
2022-11-26T22:26:34.025Z,99.90
2022-11-26T22:29:02.129Z,99.90
2022-11-26T22:31:33.780Z,99.90
2022-11-26T22:34:03.995Z,99.90
2022-11-26T22:36:32.679Z,99.90
2022-11-26T22:39:03.013Z,99.90
2022-11-26T22:41:31.169Z,99.90
2022-11-26T22:44:00.122Z,99.90
2022-11-26T22:46:28.427Z,99.90
2022-11-26T22:48:59.492Z,99.90
2022-11-26T22:51:29.708Z,99.90
2022-11-26T22:53:59.753Z,99.90
2022-11-26T22:56:29.172Z,99.90
2022-11-26T22:58:57.848Z,99.90
2022-11-26T23:01:27.660Z,99.90
2022-11-26T23:03:59.142Z,99.90
2022-11-26T23:06:31.419Z,99.90
2022-11-26T23:09:00.486Z,99.90
2022-11-26T23:11:31.916Z,99.90
2022-11-26T23:14:01.992Z,99.90
2022-11-26T23:16:30.264Z,99.90
2022-11-26T23:19:02.999Z,99.90
2022-11-26T23:21:32.722Z,99.90
2022-11-26T23:24:01.134Z,99.90
2022-11-26T23:26:31.978Z,99.90
2022-11-26T23:29:02.051Z,99.90
2022-11-26T23:31:31.834Z,99.90
2022-11-26T23:34:00.147Z,99.90
2022-11-26T23:36:30.736Z,99.90
2022-11-26T23:39:01.211Z,99.90
2022-11-26T23:41:29.866Z,99.90
2022-11-26T23:43:58.156Z,99.90
2022-11-26T23:46:28.589Z,99.90
2022-11-26T23:48:57.073Z,99.90
2022-11-26T23:51:27.213Z,99.90
2022-11-26T23:53:56.869Z,99.90
2022-11-26T23:56:26.808Z,99.90
2022-11-26T23:58:58.723Z,99.90
